Terminal Aerodrome Forecast
Issued by NWS Medford, OR

Home | Current Version | Previous Version | Text Only | Print | Product List | Glossary On
Versions: 1 2 3 4 5 6 7 8 9 10 11 12 13 14 15
000
FTUS46 KMFR 092342
TAFMFR
TAF
KMFR 092342Z 1000/1024 VRB03KT P6SM -RA SCT025 OVC040
     FM100400 20005KT 5SM -RA BR BKN015 OVC025
     FM101100 23004KT 3SM -RA BR BKN010 OVC020
     FM101500 23003KT 2SM -SHRA BR BKN005 OVC015
     FM101800 29007KT P6SM SCT020 BKN040=

USA.gov is the U.S. government's official web portal to all federal, state and local government web resources and services.